Aérodrome :
LOGIN :

S'inscrire | Disclaimer

   EN    FR    IT 

 










Légende :    VFR   VFR Marginal   IFR   IFR Intensif   IFR Très Intensif
Visi : 
Plafond : 
>= 8 km
>= 3000ft
5 à 8 km
1000 à 3000 ft
1500m à 5 km
500 à 1000 ft
800 à 1500m
200 à 500 ft
< 800m
< 200 ft
Symboles :   Orages  Brouillard  Fortes neiges  Fortes précipitations  Vent > 20 kt
SIGMETs :   Divers  Orages  Givrage  Turbulence  Onde Orograph.  Cendres Volcan.






- Altitude de l'aérodrome : 16 ft
- Code IATA : SDR


LEXJ - Santander Cantabria

DERNIER METAR :
  • 261200Z 04005KT 340V110 9999 FEW035 22/15 Q1020

METARs EXPIRÉS :
  • 261130Z 05004KT 330V120 CAVOK 22/14 Q1020
  • 261100Z 04003KT 340V100 CAVOK 22/15 Q1020
  • 261030Z VRB02KT CAVOK 22/15 Q1020
  • 261000Z VRB02KT CAVOK 21/16 Q1020
  • 260930Z VRB01KT CAVOK 21/16 Q1020

TAF TAF LEXJ
Valide du 26 à 09h jusqu'au 27 à 09h UTC


260800Z 2609/2709 VRB05KT 9999 FEW040 TX24/2613Z TN15/2705Z
TEMPO 2612/2618 04010KT
TEMPO 2700/2709 22010KT



MET'MAP, la Météo Aéronautique d'un coup d'oeil ! - Copyright ORBIFLY Décembre 2007 - Disclaimer

ORBIFLY MET'MAP TEAM :

Programmation & Développement : Alexandra Zaïnal
Sur une idée originale de : Baudouin d'Aumeries
Assistance à la programmation : Marc-Olivier Méhu
Soutien technique & logistique : Manuel Goepfert

Contact : metmap@orbifly.com




SOURCES & CREDITS :

   NOAA